sensor_id;sensor_type;location;lat;lon;timestamp;P1;durP1;ratioP1;P2;durP2;ratioP2
52186;SDS011;38161;53.020;6.598;2024-02-04T00:00:50;10.17;;;2.70;;
52186;SDS011;38161;53.020;6.598;2024-02-04T00:03:16;8.50;;;2.72;;
52186;SDS011;38161;53.020;6.598;2024-02-04T00:05:42;5.22;;;2.10;;
52186;SDS011;38161;53.020;6.598;2024-02-04T00:08:08;10.90;;;2.80;;
52186;SDS011;38161;53.020;6.598;2024-02-04T00:10:37;10.60;;;2.20;;
52186;SDS011;38161;53.020;6.598;2024-02-04T00:13:06;8.05;;;2.60;;
52186;SDS011;38161;53.020;6.598;2024-02-04T00:15:32;8.43;;;2.50;;
52186;SDS011;38161;53.020;6.598;2024-02-04T00:17:57;7.63;;;2.17;;
52186;SDS011;38161;53.020;6.598;2024-02-04T00:20:23;15.10;;;2.80;;
52186;SDS011;38161;53.020;6.598;2024-02-04T00:22:50;8.82;;;2.28;;
52186;SDS011;38161;53.020;6.598;2024-02-04T00:25:16;8.57;;;1.90;;
52186;SDS011;38161;53.020;6.598;2024-02-04T00:27:44;9.80;;;2.47;;
52186;SDS011;38161;53.020;6.598;2024-02-04T00:30:10;8.57;;;2.30;;
52186;SDS011;38161;53.020;6.598;2024-02-04T00:32:36;8.10;;;2.17;;
52186;SDS011;38161;53.020;6.598;2024-02-04T00:35:01;9.70;;;2.23;;
52186;SDS011;38161;53.020;6.598;2024-02-04T00:37:28;6.72;;;2.10;;
52186;SDS011;38161;53.020;6.598;2024-02-04T00:39:53;10.80;;;2.25;;
52186;SDS011;38161;53.020;6.598;2024-02-04T00:42:19;8.27;;;2.03;;
52186;SDS011;38161;53.020;6.598;2024-02-04T00:44:45;7.53;;;2.33;;
52186;SDS011;38161;53.020;6.598;2024-02-04T00:47:11;7.95;;;2.17;;
52186;SDS011;38161;53.020;6.598;2024-02-04T00:49:38;6.75;;;2.00;;
52186;SDS011;38161;53.020;6.598;2024-02-04T00:52:04;9.45;;;1.95;;
52186;SDS011;38161;53.020;6.598;2024-02-04T00:54:30;6.63;;;2.20;;
52186;SDS011;38161;53.020;6.598;2024-02-04T00:56:56;5.95;;;2.03;;
52186;SDS011;38161;53.020;6.598;2024-02-04T00:59:22;9.05;;;2.15;;
52186;SDS011;38161;53.020;6.598;2024-02-04T01:01:48;8.25;;;2.17;;
52186;SDS011;38161;53.020;6.598;2024-02-04T01:04:14;4.97;;;1.73;;
52186;SDS011;38161;53.020;6.598;2024-02-04T01:06:40;8.45;;;2.20;;
52186;SDS011;38161;53.020;6.598;2024-02-04T01:09:05;9.53;;;1.70;;
52186;SDS011;38161;53.020;6.598;2024-02-04T01:11:31;7.47;;;1.85;;
52186;SDS011;38161;53.020;6.598;2024-02-04T01:13:57;8.67;;;1.70;;
52186;SDS011;38161;53.020;6.598;2024-02-04T01:16:23;4.87;;;1.77;;
52186;SDS011;38161;53.020;6.598;2024-02-04T01:18:49;11.77;;;2.58;;
52186;SDS011;38161;53.020;6.598;2024-02-04T01:21:15;8.80;;;1.83;;
52186;SDS011;38161;53.020;6.598;2024-02-04T01:23:41;8.05;;;2.03;;
52186;SDS011;38161;53.020;6.598;2024-02-04T01:26:07;7.18;;;2.53;;
52186;SDS011;38161;53.020;6.598;2024-02-04T01:28:33;9.60;;;2.08;;
52186;SDS011;38161;53.020;6.598;2024-02-04T01:31:01;9.73;;;1.92;;
52186;SDS011;38161;53.020;6.598;2024-02-04T01:33:27;6.15;;;2.22;;
52186;SDS011;38161;53.020;6.598;2024-02-04T01:35:53;6.68;;;1.83;;
52186;SDS011;38161;53.020;6.598;2024-02-04T01:38:19;7.30;;;1.75;;
52186;SDS011;38161;53.020;6.598;2024-02-04T01:40:44;8.63;;;1.97;;
52186;SDS011;38161;53.020;6.598;2024-02-04T01:43:11;6.07;;;1.92;;
52186;SDS011;38161;53.020;6.598;2024-02-04T01:45:37;11.18;;;1.92;;
52186;SDS011;38161;53.020;6.598;2024-02-04T01:48:03;4.80;;;1.37;;
52186;SDS011;38161;53.020;6.598;2024-02-04T01:50:30;8.65;;;1.90;;
52186;SDS011;38161;53.020;6.598;2024-02-04T01:52:56;8.15;;;1.92;;
52186;SDS011;38161;53.020;6.598;2024-02-04T01:55:22;9.50;;;1.65;;
52186;SDS011;38161;53.020;6.598;2024-02-04T01:57:48;7.90;;;1.67;;
52186;SDS011;38161;53.020;6.598;2024-02-04T02:00:15;9.38;;;1.70;;
52186;SDS011;38161;53.020;6.598;2024-02-04T02:02:42;7.18;;;1.60;;
52186;SDS011;38161;53.020;6.598;2024-02-04T02:05:11;6.13;;;1.73;;
52186;SDS011;38161;53.020;6.598;2024-02-04T02:07:36;12.43;;;2.05;;
52186;SDS011;38161;53.020;6.598;2024-02-04T02:10:02;8.43;;;1.80;;
52186;SDS011;38161;53.020;6.598;2024-02-04T02:12:39;8.65;;;1.63;;
52186;SDS011;38161;53.020;6.598;2024-02-04T02:15:32;10.52;;;2.00;;
52186;SDS011;38161;53.020;6.598;2024-02-04T02:18:10;7.85;;;1.98;;
52186;SDS011;38161;53.020;6.598;2024-02-04T02:24:38;8.83;;;1.97;;
52186;SDS011;38161;53.020;6.598;2024-02-04T02:26:39;7.80;;;1.90;;
52186;SDS011;38161;53.020;6.598;2024-02-04T02:31:34;6.93;;;1.60;;
52186;SDS011;38161;53.020;6.598;2024-02-04T02:34:01;9.00;;;1.42;;
52186;SDS011;38161;53.020;6.598;2024-02-04T02:36:27;8.90;;;2.00;;
52186;SDS011;38161;53.020;6.598;2024-02-04T02:39:02;10.43;;;1.90;;
52186;SDS011;38161;53.020;6.598;2024-02-04T02:41:44;6.05;;;1.67;;
52186;SDS011;38161;53.020;6.598;2024-02-04T02:44:14;6.72;;;1.60;;
52186;SDS011;38161;53.020;6.598;2024-02-04T02:46:41;12.02;;;2.22;;
52186;SDS011;38161;53.020;6.598;2024-02-04T02:49:10;10.65;;;2.17;;
52186;SDS011;38161;53.020;6.598;2024-02-04T02:51:36;7.50;;;2.10;;
52186;SDS011;38161;53.020;6.598;2024-02-04T02:54:02;7.93;;;2.20;;
52186;SDS011;38161;53.020;6.598;2024-02-04T02:56:28;7.45;;;1.85;;
52186;SDS011;38161;53.020;6.598;2024-02-04T02:58:53;5.60;;;1.60;;
52186;SDS011;38161;53.020;6.598;2024-02-04T03:01:19;7.77;;;2.10;;
52186;SDS011;38161;53.020;6.598;2024-02-04T03:03:45;6.95;;;2.30;;
52186;SDS011;38161;53.020;6.598;2024-02-04T03:06:11;12.80;;;2.50;;
52186;SDS011;38161;53.020;6.598;2024-02-04T03:08:36;8.60;;;1.97;;
52186;SDS011;38161;53.020;6.598;2024-02-04T03:11:02;5.13;;;2.00;;
52186;SDS011;38161;53.020;6.598;2024-02-04T03:13:28;12.50;;;2.55;;
52186;SDS011;38161;53.020;6.598;2024-02-04T03:15:55;11.45;;;2.35;;
52186;SDS011;38161;53.020;6.598;2024-02-04T03:18:21;11.90;;;2.47;;
52186;SDS011;38161;53.020;6.598;2024-02-04T03:20:47;13.18;;;3.35;;
52186;SDS011;38161;53.020;6.598;2024-02-04T03:23:12;11.77;;;2.30;;
52186;SDS011;38161;53.020;6.598;2024-02-04T03:25:39;10.35;;;3.00;;
52186;SDS011;38161;53.020;6.598;2024-02-04T03:28:04;8.50;;;2.77;;
52186;SDS011;38161;53.020;6.598;2024-02-04T03:30:30;8.07;;;3.17;;
52186;SDS011;38161;53.020;6.598;2024-02-04T03:32:56;8.63;;;2.80;;
52186;SDS011;38161;53.020;6.598;2024-02-04T03:35:22;9.87;;;3.33;;
52186;SDS011;38161;53.020;6.598;2024-02-04T03:37:47;6.70;;;2.47;;
52186;SDS011;38161;53.020;6.598;2024-02-04T03:40:13;14.80;;;3.10;;
52186;SDS011;38161;53.020;6.598;2024-02-04T03:42:39;9.13;;;2.72;;
52186;SDS011;38161;53.020;6.598;2024-02-04T03:45:05;9.93;;;4.50;;
52186;SDS011;38161;53.020;6.598;2024-02-04T03:47:32;10.35;;;2.85;;
52186;SDS011;38161;53.020;6.598;2024-02-04T03:49:57;8.07;;;2.77;;
52186;SDS011;38161;53.020;6.598;2024-02-04T03:52:23;8.60;;;2.58;;
52186;SDS011;38161;53.020;6.598;2024-02-04T03:54:49;6.87;;;2.70;;
52186;SDS011;38161;53.020;6.598;2024-02-04T03:57:14;10.07;;;2.33;;
52186;SDS011;38161;53.020;6.598;2024-02-04T03:59:43;9.48;;;2.05;;
52186;SDS011;38161;53.020;6.598;2024-02-04T04:02:11;10.05;;;2.30;;
52186;SDS011;38161;53.020;6.598;2024-02-04T04:04:39;10.77;;;1.97;;
52186;SDS011;38161;53.020;6.598;2024-02-04T04:07:06;8.52;;;2.30;;
52186;SDS011;38161;53.020;6.598;2024-02-04T04:09:32;9.27;;;1.97;;
52186;SDS011;38161;53.020;6.598;2024-02-04T04:11:58;17.27;;;2.90;;
52186;SDS011;38161;53.020;6.598;2024-02-04T04:14:23;13.73;;;2.60;;
52186;SDS011;38161;53.020;6.598;2024-02-04T04:16:49;13.77;;;2.83;;
52186;SDS011;38161;53.020;6.598;2024-02-04T04:19:15;12.00;;;2.70;;
52186;SDS011;38161;53.020;6.598;2024-02-04T04:21:40;8.27;;;1.90;;
52186;SDS011;38161;53.020;6.598;2024-02-04T04:24:06;12.93;;;2.70;;
52186;SDS011;38161;53.020;6.598;2024-02-04T04:26:33;10.65;;;2.38;;
52186;SDS011;38161;53.020;6.598;2024-02-04T04:28:59;6.95;;;2.10;;
52186;SDS011;38161;53.020;6.598;2024-02-04T04:31:24;14.30;;;3.03;;
52186;SDS011;38161;53.020;6.598;2024-02-04T04:33:50;7.95;;;2.00;;
52186;SDS011;38161;53.020;6.598;2024-02-04T04:36:18;11.55;;;2.63;;
52186;SDS011;38161;53.020;6.598;2024-02-04T04:38:44;6.97;;;2.27;;
52186;SDS011;38161;53.020;6.598;2024-02-04T04:41:10;14.17;;;2.90;;
52186;SDS011;38161;53.020;6.598;2024-02-04T04:43:38;13.68;;;2.22;;
52186;SDS011;38161;53.020;6.598;2024-02-04T04:46:04;12.52;;;3.25;;
52186;SDS011;38161;53.020;6.598;2024-02-04T04:48:30;9.87;;;2.43;;
52186;SDS011;38161;53.020;6.598;2024-02-04T04:50:56;13.10;;;2.27;;
52186;SDS011;38161;53.020;6.598;2024-02-04T04:53:21;13.40;;;2.43;;
52186;SDS011;38161;53.020;6.598;2024-02-04T04:55:47;9.23;;;1.87;;
52186;SDS011;38161;53.020;6.598;2024-02-04T04:58:13;7.00;;;2.00;;
52186;SDS011;38161;53.020;6.598;2024-02-04T05:00:38;9.83;;;2.37;;
52186;SDS011;38161;53.020;6.598;2024-02-04T05:03:04;8.27;;;2.20;;
52186;SDS011;38161;53.020;6.598;2024-02-04T05:05:30;6.70;;;1.90;;
52186;SDS011;38161;53.020;6.598;2024-02-04T05:07:56;9.32;;;2.13;;
52186;SDS011;38161;53.020;6.598;2024-02-04T05:10:22;11.20;;;2.17;;
52186;SDS011;38161;53.020;6.598;2024-02-04T05:12:47;10.33;;;2.03;;
52186;SDS011;38161;53.020;6.598;2024-02-04T05:15:13;9.73;;;1.80;;
52186;SDS011;38161;53.020;6.598;2024-02-04T05:17:39;12.50;;;2.20;;
52186;SDS011;38161;53.020;6.598;2024-02-04T05:20:05;15.02;;;2.30;;
52186;SDS011;38161;53.020;6.598;2024-02-04T05:22:32;12.18;;;1.88;;
52186;SDS011;38161;53.020;6.598;2024-02-04T05:24:58;9.40;;;2.10;;
52186;SDS011;38161;53.020;6.598;2024-02-04T05:27:24;10.40;;;2.15;;
52186;SDS011;38161;53.020;6.598;2024-02-04T05:29:50;14.07;;;2.05;;
52186;SDS011;38161;53.020;6.598;2024-02-04T05:32:15;15.13;;;1.83;;
52186;SDS011;38161;53.020;6.598;2024-02-04T05:34:44;10.13;;;2.78;;
52186;SDS011;38161;53.020;6.598;2024-02-04T05:37:10;11.73;;;2.63;;
52186;SDS011;38161;53.020;6.598;2024-02-04T05:39:36;9.20;;;1.87;;
52186;SDS011;38161;53.020;6.598;2024-02-04T05:42:01;13.00;;;2.23;;
52186;SDS011;38161;53.020;6.598;2024-02-04T05:44:27;12.48;;;2.58;;
52186;SDS011;38161;53.020;6.598;2024-02-04T05:46:53;11.10;;;1.70;;
52186;SDS011;38161;53.020;6.598;2024-02-04T05:49:19;13.07;;;1.90;;
52186;SDS011;38161;53.020;6.598;2024-02-04T05:51:44;11.80;;;2.37;;
52186;SDS011;38161;53.020;6.598;2024-02-04T05:54:10;8.18;;;1.65;;
52186;SDS011;38161;53.020;6.598;2024-02-04T05:56:36;8.27;;;1.80;;
52186;SDS011;38161;53.020;6.598;2024-02-04T05:59:02;7.70;;;1.92;;
52186;SDS011;38161;53.020;6.598;2024-02-04T06:01:28;12.30;;;2.30;;
52186;SDS011;38161;53.020;6.598;2024-02-04T06:03:54;11.00;;;2.42;;
52186;SDS011;38161;53.020;6.598;2024-02-04T06:06:20;9.47;;;1.67;;
52186;SDS011;38161;53.020;6.598;2024-02-04T06:08:46;11.35;;;1.90;;
52186;SDS011;38161;53.020;6.598;2024-02-04T06:11:12;7.25;;;1.90;;
52186;SDS011;38161;53.020;6.598;2024-02-04T06:13:42;11.18;;;1.95;;
52186;SDS011;38161;53.020;6.598;2024-02-04T06:16:09;10.48;;;2.55;;
52186;SDS011;38161;53.020;6.598;2024-02-04T06:18:37;10.18;;;2.03;;
52186;SDS011;38161;53.020;6.598;2024-02-04T06:23:32;9.35;;;2.40;;
52186;SDS011;38161;53.020;6.598;2024-02-04T06:25:59;10.13;;;1.85;;
52186;SDS011;38161;53.020;6.598;2024-02-04T06:28:26;12.25;;;1.70;;
52186;SDS011;38161;53.020;6.598;2024-02-04T06:30:52;8.23;;;1.75;;
52186;SDS011;38161;53.020;6.598;2024-02-04T06:33:19;9.07;;;2.58;;
52186;SDS011;38161;53.020;6.598;2024-02-04T06:35:45;7.88;;;2.00;;
52186;SDS011;38161;53.020;6.598;2024-02-04T06:38:10;10.93;;;2.10;;
52186;SDS011;38161;53.020;6.598;2024-02-04T06:40:36;12.23;;;3.35;;
52186;SDS011;38161;53.020;6.598;2024-02-04T06:43:02;10.17;;;2.63;;
52186;SDS011;38161;53.020;6.598;2024-02-04T06:45:28;9.75;;;1.95;;
52186;SDS011;38161;53.020;6.598;2024-02-04T06:47:54;17.35;;;2.50;;
52186;SDS011;38161;53.020;6.598;2024-02-04T06:50:20;12.13;;;2.50;;
52186;SDS011;38161;53.020;6.598;2024-02-04T06:52:45;13.80;;;2.10;;
52186;SDS011;38161;53.020;6.598;2024-02-04T06:55:11;13.85;;;2.45;;
52186;SDS011;38161;53.020;6.598;2024-02-04T06:57:37;9.63;;;2.47;;
52186;SDS011;38161;53.020;6.598;2024-02-04T07:00:05;8.07;;;1.85;;
52186;SDS011;38161;53.020;6.598;2024-02-04T07:02:33;13.60;;;2.60;;
52186;SDS011;38161;53.020;6.598;2024-02-04T07:04:59;10.50;;;1.90;;
52186;SDS011;38161;53.020;6.598;2024-02-04T07:07:25;11.15;;;2.30;;
52186;SDS011;38161;53.020;6.598;2024-02-04T07:09:51;10.73;;;2.33;;
52186;SDS011;38161;53.020;6.598;2024-02-04T07:12:17;7.70;;;2.17;;
52186;SDS011;38161;53.020;6.598;2024-02-04T07:14:42;15.13;;;2.55;;
52186;SDS011;38161;53.020;6.598;2024-02-04T07:17:08;15.30;;;2.53;;
52186;SDS011;38161;53.020;6.598;2024-02-04T07:19:37;9.15;;;2.30;;
52186;SDS011;38161;53.020;6.598;2024-02-04T07:22:03;11.27;;;2.35;;
52186;SDS011;38161;53.020;6.598;2024-02-04T07:24:29;11.85;;;2.60;;
52186;SDS011;38161;53.020;6.598;2024-02-04T07:26:54;12.90;;;2.15;;
52186;SDS011;38161;53.020;6.598;2024-02-04T07:29:20;9.65;;;2.17;;
52186;SDS011;38161;53.020;6.598;2024-02-04T07:31:46;8.38;;;2.13;;
52186;SDS011;38161;53.020;6.598;2024-02-04T07:34:12;9.35;;;2.33;;
52186;SDS011;38161;53.020;6.598;2024-02-04T07:36:38;8.63;;;2.53;;
52186;SDS011;38161;53.020;6.598;2024-02-04T07:39:04;10.48;;;2.60;;
52186;SDS011;38161;53.020;6.598;2024-02-04T07:41:30;12.52;;;2.10;;
52186;SDS011;38161;53.020;6.598;2024-02-04T07:43:56;14.23;;;2.35;;
52186;SDS011;38161;53.020;6.598;2024-02-04T07:46:23;17.02;;;2.45;;
52186;SDS011;38161;53.020;6.598;2024-02-04T07:48:49;8.65;;;1.92;;
52186;SDS011;38161;53.020;6.598;2024-02-04T07:51:15;11.00;;;2.33;;
52186;SDS011;38161;53.020;6.598;2024-02-04T07:53:41;10.75;;;2.30;;
52186;SDS011;38161;53.020;6.598;2024-02-04T07:56:07;8.52;;;1.80;;
52186;SDS011;38161;53.020;6.598;2024-02-04T07:58:33;13.10;;;2.22;;
52186;SDS011;38161;53.020;6.598;2024-02-04T08:00:59;10.35;;;2.53;;
52186;SDS011;38161;53.020;6.598;2024-02-04T08:03:25;12.15;;;2.65;;
52186;SDS011;38161;53.020;6.598;2024-02-04T08:05:50;9.23;;;2.20;;
52186;SDS011;38161;53.020;6.598;2024-02-04T08:08:19;7.90;;;2.25;;
52186;SDS011;38161;53.020;6.598;2024-02-04T08:10:45;12.60;;;2.92;;
52186;SDS011;38161;53.020;6.598;2024-02-04T08:13:10;8.63;;;2.17;;
52186;SDS011;38161;53.020;6.598;2024-02-04T08:15:36;18.53;;;4.00;;
52186;SDS011;38161;53.020;6.598;2024-02-04T08:18:02;8.75;;;2.50;;
52186;SDS011;38161;53.020;6.598;2024-02-04T08:20:28;12.60;;;2.85;;
52186;SDS011;38161;53.020;6.598;2024-02-04T08:22:54;8.43;;;2.50;;
52186;SDS011;38161;53.020;6.598;2024-02-04T08:25:20;7.85;;;2.20;;
52186;SDS011;38161;53.020;6.598;2024-02-04T08:27:45;18.10;;;3.20;;
52186;SDS011;38161;53.020;6.598;2024-02-04T08:30:11;13.35;;;2.20;;
52186;SDS011;38161;53.020;6.598;2024-02-04T08:32:38;10.57;;;2.20;;
52186;SDS011;38161;53.020;6.598;2024-02-04T08:35:06;7.93;;;2.30;;
52186;SDS011;38161;53.020;6.598;2024-02-04T08:37:32;13.10;;;2.67;;
52186;SDS011;38161;53.020;6.598;2024-02-04T08:40:00;9.20;;;2.72;;
52186;SDS011;38161;53.020;6.598;2024-02-04T08:42:26;11.98;;;2.67;;
52186;SDS011;38161;53.020;6.598;2024-02-04T08:44:52;12.23;;;2.90;;
52186;SDS011;38161;53.020;6.598;2024-02-04T08:47:18;11.00;;;2.80;;
52186;SDS011;38161;53.020;6.598;2024-02-04T08:49:44;10.20;;;2.47;;
52186;SDS011;38161;53.020;6.598;2024-02-04T08:52:10;10.97;;;2.50;;
52186;SDS011;38161;53.020;6.598;2024-02-04T08:54:35;10.70;;;2.60;;
52186;SDS011;38161;53.020;6.598;2024-02-04T08:57:01;10.70;;;2.30;;
52186;SDS011;38161;53.020;6.598;2024-02-04T08:59:27;10.93;;;2.58;;
52186;SDS011;38161;53.020;6.598;2024-02-04T09:01:54;10.20;;;2.85;;
52186;SDS011;38161;53.020;6.598;2024-02-04T09:04:19;8.55;;;2.67;;
52186;SDS011;38161;53.020;6.598;2024-02-04T09:06:45;14.80;;;3.83;;
52186;SDS011;38161;53.020;6.598;2024-02-04T09:09:11;14.68;;;3.60;;
52186;SDS011;38161;53.020;6.598;2024-02-04T09:11:38;11.27;;;3.13;;
52186;SDS011;38161;53.020;6.598;2024-02-04T09:14:04;10.38;;;2.60;;
52186;SDS011;38161;53.020;6.598;2024-02-04T09:16:30;8.63;;;2.25;;
52186;SDS011;38161;53.020;6.598;2024-02-04T09:18:56;15.93;;;2.97;;
52186;SDS011;38161;53.020;6.598;2024-02-04T09:21:22;9.33;;;2.30;;
52186;SDS011;38161;53.020;6.598;2024-02-04T09:23:48;12.47;;;2.43;;
52186;SDS011;38161;53.020;6.598;2024-02-04T09:26:14;6.80;;;2.05;;
52186;SDS011;38161;53.020;6.598;2024-02-04T09:28:40;8.57;;;2.40;;
52186;SDS011;38161;53.020;6.598;2024-02-04T09:31:07;9.57;;;2.88;;
52186;SDS011;38161;53.020;6.598;2024-02-04T09:33:34;8.10;;;2.22;;
52186;SDS011;38161;53.020;6.598;2024-02-04T09:36:00;8.38;;;2.42;;
52186;SDS011;38161;53.020;6.598;2024-02-04T09:38:26;7.47;;;2.00;;
52186;SDS011;38161;53.020;6.598;2024-02-04T09:40:52;12.27;;;2.43;;
52186;SDS011;38161;53.020;6.598;2024-02-04T09:43:18;8.35;;;1.85;;
52186;SDS011;38161;53.020;6.598;2024-02-04T09:45:45;8.82;;;2.10;;
52186;SDS011;38161;53.020;6.598;2024-02-04T09:48:10;9.20;;;2.28;;
52186;SDS011;38161;53.020;6.598;2024-02-04T09:50:38;12.00;;;2.47;;
52186;SDS011;38161;53.020;6.598;2024-02-04T09:53:04;11.03;;;2.10;;
52186;SDS011;38161;53.020;6.598;2024-02-04T09:55:34;11.20;;;2.10;;
52186;SDS011;38161;53.020;6.598;2024-02-04T09:58:01;9.05;;;2.00;;
52186;SDS011;38161;53.020;6.598;2024-02-04T10:00:27;9.53;;;2.10;;
52186;SDS011;38161;53.020;6.598;2024-02-04T10:02:54;9.73;;;2.47;;
52186;SDS011;38161;53.020;6.598;2024-02-04T10:05:21;11.27;;;2.35;;
52186;SDS011;38161;53.020;6.598;2024-02-04T10:07:47;9.32;;;2.75;;
52186;SDS011;38161;53.020;6.598;2024-02-04T10:10:13;7.95;;;1.92;;
52186;SDS011;38161;53.020;6.598;2024-02-04T10:12:39;9.90;;;2.08;;
52186;SDS011;38161;53.020;6.598;2024-02-04T10:15:06;10.48;;;2.20;;
52186;SDS011;38161;53.020;6.598;2024-02-04T10:17:33;5.97;;;1.67;;
52186;SDS011;38161;53.020;6.598;2024-02-04T10:20:00;5.78;;;1.70;;
52186;SDS011;38161;53.020;6.598;2024-02-04T10:22:26;7.93;;;2.10;;
52186;SDS011;38161;53.020;6.598;2024-02-04T10:25:05;7.65;;;1.50;;
52186;SDS011;38161;53.020;6.598;2024-02-04T10:27:32;6.72;;;1.90;;
52186;SDS011;38161;53.020;6.598;2024-02-04T10:29:59;6.95;;;1.80;;
52186;SDS011;38161;53.020;6.598;2024-02-04T10:32:25;12.57;;;2.85;;
52186;SDS011;38161;53.020;6.598;2024-02-04T10:34:51;8.50;;;2.30;;
52186;SDS011;38161;53.020;6.598;2024-02-04T10:37:17;11.52;;;2.15;;
52186;SDS011;38161;53.020;6.598;2024-02-04T10:39:43;6.07;;;1.50;;
52186;SDS011;38161;53.020;6.598;2024-02-04T10:42:09;7.57;;;1.85;;
52186;SDS011;38161;53.020;6.598;2024-02-04T10:44:38;10.27;;;2.20;;
52186;SDS011;38161;53.020;6.598;2024-02-04T10:47:08;10.32;;;2.50;;
52186;SDS011;38161;53.020;6.598;2024-02-04T10:49:37;8.20;;;1.98;;
52186;SDS011;38161;53.020;6.598;2024-02-04T10:52:09;7.78;;;1.70;;
52186;SDS011;38161;53.020;6.598;2024-02-04T10:54:38;7.65;;;2.15;;
52186;SDS011;38161;53.020;6.598;2024-02-04T10:57:12;7.65;;;2.00;;
52186;SDS011;38161;53.020;6.598;2024-02-04T10:59:42;7.85;;;1.67;;
52186;SDS011;38161;53.020;6.598;2024-02-04T11:02:09;9.02;;;1.90;;
52186;SDS011;38161;53.020;6.598;2024-02-04T11:04:37;4.97;;;1.60;;
52186;SDS011;38161;53.020;6.598;2024-02-04T11:07:04;9.48;;;2.05;;
52186;SDS011;38161;53.020;6.598;2024-02-04T11:09:31;6.88;;;2.00;;
52186;SDS011;38161;53.020;6.598;2024-02-04T11:11:58;9.38;;;1.77;;
52186;SDS011;38161;53.020;6.598;2024-02-04T11:14:25;10.18;;;1.38;;
52186;SDS011;38161;53.020;6.598;2024-02-04T11:22:40;7.88;;;1.20;;
52186;SDS011;38161;53.020;6.598;2024-02-04T11:25:51;7.30;;;1.50;;
52186;SDS011;38161;53.020;6.598;2024-02-04T11:28:18;6.72;;;1.70;;
52186;SDS011;38161;53.020;6.598;2024-02-04T11:30:47;6.00;;;1.83;;
52186;SDS011;38161;53.020;6.598;2024-02-04T11:33:17;4.47;;;1.63;;
52186;SDS011;38161;53.020;6.598;2024-02-04T11:35:44;6.25;;;2.08;;
52186;SDS011;38161;53.020;6.598;2024-02-04T11:38:10;5.57;;;2.10;;
52186;SDS011;38161;53.020;6.598;2024-02-04T11:40:39;7.38;;;2.25;;
52186;SDS011;38161;53.020;6.598;2024-02-04T11:43:12;9.55;;;2.17;;
52186;SDS011;38161;53.020;6.598;2024-02-04T11:45:39;8.02;;;1.92;;
52186;SDS011;38161;53.020;6.598;2024-02-04T11:48:07;4.57;;;2.10;;
52186;SDS011;38161;53.020;6.598;2024-02-04T11:50:33;4.55;;;1.92;;
52186;SDS011;38161;53.020;6.598;2024-02-04T11:53:10;8.68;;;2.20;;
52186;SDS011;38161;53.020;6.598;2024-02-04T11:55:38;5.23;;;1.90;;
52186;SDS011;38161;53.020;6.598;2024-02-04T11:58:05;6.10;;;2.03;;
52186;SDS011;38161;53.020;6.598;2024-02-04T12:00:35;7.30;;;3.40;;
52186;SDS011;38161;53.020;6.598;2024-02-04T12:08:07;4.30;;;1.70;;
52186;SDS011;38161;53.020;6.598;2024-02-04T12:10:37;5.03;;;1.70;;
52186;SDS011;38161;53.020;6.598;2024-02-04T12:13:04;6.53;;;1.60;;
52186;SDS011;38161;53.020;6.598;2024-02-04T12:15:32;6.53;;;1.60;;
52186;SDS011;38161;53.020;6.598;2024-02-04T12:18:13;5.20;;;1.67;;
52186;SDS011;38161;53.020;6.598;2024-02-04T12:20:45;5.97;;;1.50;;
52186;SDS011;38161;53.020;6.598;2024-02-04T12:23:13;7.82;;;1.73;;
52186;SDS011;38161;53.020;6.598;2024-02-04T12:25:39;4.47;;;1.63;;
52186;SDS011;38161;53.020;6.598;2024-02-04T12:28:05;4.70;;;1.55;;
52186;SDS011;38161;53.020;6.598;2024-02-04T12:30:32;5.85;;;1.85;;
52186;SDS011;38161;53.020;6.598;2024-02-04T12:32:59;7.60;;;2.00;;
52186;SDS011;38161;53.020;6.598;2024-02-04T12:35:31;7.03;;;1.85;;
52186;SDS011;38161;53.020;6.598;2024-02-04T12:37:58;6.18;;;1.83;;
52186;SDS011;38161;53.020;6.598;2024-02-04T12:40:26;6.00;;;1.88;;
52186;SDS011;38161;53.020;6.598;2024-02-04T12:42:58;5.57;;;1.63;;
52186;SDS011;38161;53.020;6.598;2024-02-04T12:45:26;3.72;;;1.20;;
52186;SDS011;38161;53.020;6.598;2024-02-04T12:47:54;3.85;;;1.40;;
52186;SDS011;38161;53.020;6.598;2024-02-04T12:50:21;6.75;;;1.52;;
52186;SDS011;38161;53.020;6.598;2024-02-04T12:52:48;5.80;;;1.45;;
52186;SDS011;38161;53.020;6.598;2024-02-04T12:55:26;6.72;;;1.30;;
52186;SDS011;38161;53.020;6.598;2024-02-04T12:58:06;6.03;;;1.30;;
52186;SDS011;38161;53.020;6.598;2024-02-04T13:00:34;4.63;;;1.20;;
52186;SDS011;38161;53.020;6.598;2024-02-04T13:03:02;4.20;;;1.10;;
52186;SDS011;38161;53.020;6.598;2024-02-04T13:05:29;3.45;;;1.27;;
52186;SDS011;38161;53.020;6.598;2024-02-04T13:07:57;5.55;;;1.50;;
52186;SDS011;38161;53.020;6.598;2024-02-04T13:10:27;8.00;;;1.45;;
52186;SDS011;38161;53.020;6.598;2024-02-04T13:13:02;7.43;;;1.52;;
52186;SDS011;38161;53.020;6.598;2024-02-04T13:15:30;6.93;;;1.25;;
52186;SDS011;38161;53.020;6.598;2024-02-04T13:17:57;8.43;;;1.25;;
52186;SDS011;38161;53.020;6.598;2024-02-04T13:22:50;5.47;;;1.50;;
52186;SDS011;38161;53.020;6.598;2024-02-04T13:25:18;4.32;;;1.20;;
52186;SDS011;38161;53.020;6.598;2024-02-04T13:27:49;5.10;;;1.60;;
52186;SDS011;38161;53.020;6.598;2024-02-04T13:30:16;3.22;;;1.30;;
52186;SDS011;38161;53.020;6.598;2024-02-04T13:32:42;5.57;;;1.40;;
52186;SDS011;38161;53.020;6.598;2024-02-04T13:35:09;8.95;;;1.40;;
52186;SDS011;38161;53.020;6.598;2024-02-04T13:37:35;7.13;;;1.65;;
52186;SDS011;38161;53.020;6.598;2024-02-04T13:40:02;5.82;;;1.52;;
52186;SDS011;38161;53.020;6.598;2024-02-04T13:42:29;6.20;;;1.50;;
52186;SDS011;38161;53.020;6.598;2024-02-04T13:44:57;7.53;;;1.60;;
52186;SDS011;38161;53.020;6.598;2024-02-04T13:47:22;5.57;;;1.50;;
52186;SDS011;38161;53.020;6.598;2024-02-04T13:49:48;9.70;;;1.90;;
52186;SDS011;38161;53.020;6.598;2024-02-04T13:52:14;4.40;;;1.50;;
52186;SDS011;38161;53.020;6.598;2024-02-04T13:54:40;4.27;;;1.90;;
52186;SDS011;38161;53.020;6.598;2024-02-04T13:57:05;6.43;;;1.60;;
52186;SDS011;38161;53.020;6.598;2024-02-04T13:59:31;8.00;;;1.55;;
52186;SDS011;38161;53.020;6.598;2024-02-04T14:01:57;10.05;;;2.10;;
52186;SDS011;38161;53.020;6.598;2024-02-04T14:04:23;5.35;;;1.30;;
52186;SDS011;38161;53.020;6.598;2024-02-04T14:06:49;5.40;;;1.47;;
52186;SDS011;38161;53.020;6.598;2024-02-04T14:09:15;6.07;;;1.45;;
52186;SDS011;38161;53.020;6.598;2024-02-04T14:14:07;4.03;;;1.27;;
52186;SDS011;38161;53.020;6.598;2024-02-04T14:16:33;4.70;;;1.50;;
52186;SDS011;38161;53.020;6.598;2024-02-04T14:18:58;6.97;;;1.40;;
52186;SDS011;38161;53.020;6.598;2024-02-04T14:21:24;5.73;;;1.30;;
52186;SDS011;38161;53.020;6.598;2024-02-04T14:23:50;4.13;;;1.13;;
52186;SDS011;38161;53.020;6.598;2024-02-04T14:26:16;3.40;;;1.38;;
52186;SDS011;38161;53.020;6.598;2024-02-04T14:28:43;5.05;;;1.35;;
52186;SDS011;38161;53.020;6.598;2024-02-04T14:31:09;4.43;;;1.48;;
52186;SDS011;38161;53.020;6.598;2024-02-04T14:33:35;3.60;;;1.23;;
52186;SDS011;38161;53.020;6.598;2024-02-04T14:36:01;5.32;;;1.70;;
52186;SDS011;38161;53.020;6.598;2024-02-04T14:38:27;3.08;;;1.13;;
52186;SDS011;38161;53.020;6.598;2024-02-04T14:40:52;7.28;;;1.58;;
52186;SDS011;38161;53.020;6.598;2024-02-04T14:43:18;5.18;;;1.50;;
52186;SDS011;38161;53.020;6.598;2024-02-04T14:45:47;4.53;;;1.60;;
52186;SDS011;38161;53.020;6.598;2024-02-04T14:48:15;5.82;;;1.48;;
52186;SDS011;38161;53.020;6.598;2024-02-04T14:50:41;5.03;;;1.35;;
52186;SDS011;38161;53.020;6.598;2024-02-04T14:53:07;3.47;;;1.58;;
52186;SDS011;38161;53.020;6.598;2024-02-04T14:55:33;5.55;;;1.50;;
52186;SDS011;38161;53.020;6.598;2024-02-04T14:57:59;4.07;;;1.50;;
52186;SDS011;38161;53.020;6.598;2024-02-04T15:00:25;3.28;;;1.45;;
52186;SDS011;38161;53.020;6.598;2024-02-04T15:02:55;3.83;;;1.40;;
52186;SDS011;38161;53.020;6.598;2024-02-04T15:05:21;5.38;;;1.60;;